Fagelgracht — PBST — position and weather

sailwx.info

Track history (hours):
 
Tides and Currents Weather Stations Pressure Air Temp Water Temp Dewpoint Dewpoint Depression Visibility Wind Speed Wind Dir Waves Ship Positions

Fagelgracht

Last reported at 2017-Oct-19 19:58 UTC. Time now 2017-Oct-19 20:13 UTC.
Position N 53°32' E 009°59'.

Length 136 m; draft 5.9 m.

Type: Ship (hazmat cat A). MMSI: 246591000.

Date/timePositionNaut miles runAvg speedWind from/ knotsBaromVisibWave heightAir tempDewpointWater temp
2017-Oct-19 19:58N 53°32' E 009°59'0 0.0
2017-Oct-19 19:28N 53°32' E 009°59'0 0.0
2017-Oct-19 18:58N 53°32' E 009°59'0 0.0
2017-Oct-19 18:28N 53°32' E 009°59'0 0.0
2017-Oct-19 17:58N 53°32' E 009°59'0 0.0
2017-Oct-19 17:28N 53°32' E 009°59'0 0.0
2017-Oct-19 16:58N 53°32' E 009°59'0 0.0
2017-Oct-19 16:28N 53°32' E 009°59'0 0.0
2017-Oct-19 15:58N 53°32' E 009°59'0 0.0
2017-Oct-19 15:28N 53°32' E 009°59'0 0.0
2017-Oct-19 14:58N 53°32' E 009°59'0 0.0
2017-Oct-19 14:28N 53°32' E 009°59'0 0.0
2017-Oct-19 13:58N 53°32' E 009°59'0 0.0
2017-Oct-19 13:28N 53°32' E 009°59'0 0.0
2017-Oct-19 12:58N 53°32' E 009°59'0 0.0
2017-Oct-19 12:28N 53°32' E 009°59'0 0.0
2017-Oct-19 11:58N 53°32' E 009°59'0 0.0
2017-Oct-19 11:28N 53°32' E 009°59'0 0.0
2017-Oct-19 10:58N 53°32' E 009°59'0 0.0
2017-Oct-19 10:28N 53°32' E 009°59'0 0.0
2017-Oct-19 09:58N 53°32' E 009°59'0 0.0
2017-Oct-19 09:28N 53°32' E 009°59'0 0.0
2017-Oct-19 08:58N 53°32' E 009°59'0 0.0
2017-Oct-19 08:28N 53°32' E 009°59'0 0.0
2017-Oct-19 07:58N 53°32' E 009°59'0 0.0
2017-Oct-19 07:28N 53°32' E 009°59'0 0.0
2017-Oct-19 06:58N 53°32' E 009°59'0 0.0
2017-Oct-19 06:28N 53°32' E 009°59'0 0.0
2017-Oct-19 05:58N 53°32' E 009°59'0 0.0
2017-Oct-19 05:28N 53°32' E 009°59'0 0.0
2017-Oct-19 04:58N 53°32' E 009°59'0 0.0
2017-Oct-19 04:28N 53°32' E 009°59'0 0.0
2017-Oct-19 03:58N 53°32' E 009°59'0 0.0
2017-Oct-19 03:28N 53°32' E 009°59'0 0.0
2017-Oct-19 02:58N 53°32' E 009°59'0 0.0
2017-Oct-19 02:28N 53°32' E 009°59'0 0.0
2017-Oct-19 01:58N 53°32' E 009°59'0 0.0
2017-Oct-19 01:28N 53°32' E 009°59'0 0.0
2017-Oct-19 00:58N 53°32' E 009°59'0 0.0
2017-Oct-19 00:28N 53°32' E 009°59'0 0.0
2017-Oct-18 23:58N 53°32' E 009°59'0 0.0
2017-Oct-18 23:28N 53°32' E 009°59'0 0.0
2017-Oct-18 22:58N 53°32' E 009°59'0 0.0
2017-Oct-18 22:28N 53°32' E 009°59'0 0.0
2017-Oct-18 21:58N 53°32' E 009°59'0 0.0
2017-Oct-18 21:28N 53°32' E 009°59'0 0.0
2017-Oct-18 20:58N 53°32' E 009°59'0 0.0
2017-Oct-18 20:28N 53°32' E 009°59'0 0.3
2017-Oct-18 20:01N 53°32' E 009°59'3 6.4
2017-Oct-18 19:30N 53°32' E 009°54'4 8.5
2017-Oct-18 19:00N 53°33' E 009°47'5 9.9
2017-Oct-18 18:30N 53°34' E 009°39'611.9
2017-Oct-18 18:00N 53°38' E 009°31'611.1
2017-Oct-18 17:31N 53°43' E 009°28'510.8
2017-Oct-18 17:00N 53°48' E 009°23'510.7
2017-Oct-18 16:30N 53°52' E 009°17'510.4
2017-Oct-18 16:01N 53°53' E 009°08'1 1.6
2017-Oct-18 15:31N 53°54' E 009°09'1 1.2
2017-Oct-18 15:01N 53°54' E 009°09'1 0.9
2017-Oct-18 14:00N 53°55' E 009°11'4 7.2
2017-Oct-18 13:30N 53°57' E 009°14'4 8.3
2017-Oct-18 13:00N 54°01' E 009°18'4 8.6
2017-Oct-18 12:30N 54°05' E 009°19'4 8.1
2017-Oct-18 12:00N 54°09' E 009°22'4 8.6
2017-Oct-18 11:31N 54°11' E 009°28'4 8.5
2017-Oct-18 11:01N 54°13' E 009°35'4 7.7
2017-Oct-18 10:30N 54°16' E 009°38'4 7.6
2017-Oct-18 10:00N 54°19' E 009°43'4 7.9
2017-Oct-18 09:30N 54°22' E 009°47'25 4.9
2017-Oct-18 04:26N 54°32' E 010°26'101 9.2
2017-Oct-17 17:22N 56°01' E 011°50'3 8.8
2017-Oct-17 16:59N 55°58' E 011°50'1 1.2
2017-Oct-17 16:25N 55°58' E 011°51'0 0.1
2017-Oct-17 15:58N 55°58' E 011°51'0 0.0
2017-Oct-17 15:19N 55°58' E 011°51'0 0.0
2017-Oct-17 14:52N 55°58' E 011°51'0 0.0
2017-Oct-17 14:25N 55°58' E 011°51'0 0.0
2017-Oct-17 13:58N 55°58' E 011°51'0 0.0
2017-Oct-17 13:22N 55°58' E 011°51'0 0.0
2017-Oct-17 12:58N 55°58' E 011°51'0 0.0
2017-Oct-17 12:25N 55°58' E 011°51'0 0.0
2017-Oct-17 11:58N 55°58' E 011°51'0 0.0
2017-Oct-17 11:25N 55°58' E 011°51'0 0.0
2017-Oct-17 10:58N 55°58' E 011°51'0 0.0
2017-Oct-17 10:28N 55°58' E 011°51'0 0.0
2017-Oct-17 09:58N 55°58' E 011°51'0 0.0
2017-Oct-17 09:28N 55°58' E 011°51'0 0.0
2017-Oct-17 08:55N 55°58' E 011°51'0 0.0
2017-Oct-17 08:28N 55°58' E 011°51'0 0.0
2017-Oct-17 07:55N 55°58' E 011°51'0 0.0
2017-Oct-17 07:29N 55°58' E 011°51'0 0.7
2017-Oct-17 07:00N 55°57' E 011°50'3 5.4
2017-Oct-17 06:31N 55°55' E 011°50'511.0
2017-Oct-17 06:01N 55°57' E 011°59'1 2.8
2017-Oct-17 05:30N 55°58' E 012°01'0 0.0
2017-Oct-17 04:57N 55°58' E 012°01'0 0.0
2017-Oct-17 04:28N 55°58' E 012°01'0 0.0
2017-Oct-17 03:58N 55°58' E 012°01'0 0.0
2017-Oct-17 03:28N 55°58' E 012°01'0 0.0
2017-Oct-17 02:52N 55°58' E 012°01'0 0.0
2017-Oct-17 02:28N 55°58' E 012°01'0 0.0
2017-Oct-17 01:58N 55°58' E 012°01'0 0.0
2017-Oct-17 01:28N 55°58' E 012°01'0 0.0
2017-Oct-17 00:55N 55°58' E 012°01'0 0.0
2017-Oct-17 00:28N 55°58' E 012°01'0 0.0
2017-Oct-16 23:43N 55°58' E 012°01'0 0.0
2017-Oct-16 23:28N 55°58' E 012°01'0 0.0
2017-Oct-16 22:58N 55°58' E 012°01'0 0.0
2017-Oct-16 22:31N 55°58' E 012°01'0 0.0
2017-Oct-16 22:01N 55°58' E 012°01'0 0.0
2017-Oct-16 21:28N 55°58' E 012°01'0 0.0
2017-Oct-16 20:58N 55°58' E 012°01'0 0.0
2017-Oct-16 20:31N 55°58' E 012°01'0 0.0
2017-Oct-16 19:58N 55°58' E 012°01'0 0.0
2017-Oct-16 19:25N 55°58' E 012°01'0 0.0
2017-Oct-16 18:58N 55°58' E 012°01'0 0.0
2017-Oct-16 18:28N 55°58' E 012°01'0 0.0
2017-Oct-16 17:58N 55°58' E 012°01'0 0.0
2017-Oct-16 17:28N 55°58' E 012°01'0 0.0
2017-Oct-16 16:55N 55°58' E 012°01'0 0.0
2017-Oct-16 16:19N 55°58' E 012°01'0 0.0
2017-Oct-16 15:52N 55°58' E 012°01'0 0.0
2017-Oct-16 15:22N 55°58' E 012°01'0 0.0
2017-Oct-16 14:51N 55°58' E 012°01'0 0.0
2017-Oct-16 13:57N 55°58' E 012°01'0 0.0
2017-Oct-16 13:30N 55°58' E 012°01'0 0.0
2017-Oct-16 12:58N 55°58' E 012°01'0 0.0
2017-Oct-16 12:24N 55°58' E 012°01'0 0.0
2017-Oct-16 11:57N 55°58' E 012°01'0 0.0
2017-Oct-16 11:18N 55°58' E 012°01'0 0.0
2017-Oct-16 10:58N 55°58' E 012°01'0 0.0
2017-Oct-16 10:28N 55°58' E 012°01'0 0.0
2017-Oct-16 09:57N 55°58' E 012°01'0 0.0
2017-Oct-16 09:31N 55°58' E 012°01'0 0.0
2017-Oct-16 08:57N 55°58' E 012°01'0 0.0
2017-Oct-16 08:30N 55°58' E 012°01'0 0.0
2017-Oct-16 07:54N 55°58' E 012°01'0 0.0
2017-Oct-16 07:27N 55°58' E 012°01'0 0.0
2017-Oct-16 06:58N 55°58' E 012°01'0 0.0
2017-Oct-16 06:30N 55°58' E 012°01'0 0.0
2017-Oct-16 06:01N 55°58' E 012°01'0 0.0
2017-Oct-16 05:30N 55°58' E 012°01'0 0.0
2017-Oct-16 05:00N 55°58' E 012°01'0 0.0
2017-Oct-16 04:30N 55°58' E 012°01'0 0.0
2017-Oct-16 03:57N 55°58' E 012°01'0 0.0
2017-Oct-16 03:31N 55°58' E 012°01'0 0.0
2017-Oct-16 03:00N 55°58' E 012°01'0 0.0
2017-Oct-16 02:27N 55°58' E 012°01'0 0.0
2017-Oct-16 02:00N 55°58' E 012°01'0 0.0
2017-Oct-16 01:30N 55°58' E 012°01'0 0.0
2017-Oct-16 00:54N 55°58' E 012°01'0 0.0
2017-Oct-16 00:27N 55°58' E 012°01'0 0.0
2017-Oct-16 00:01N 55°58' E 012°01'0 0.0
2017-Oct-15 23:30N 55°58' E 012°01'0 0.0
2017-Oct-15 23:00N 55°58' E 012°01'0 0.0
2017-Oct-15 22:30N 55°58' E 012°01'0 0.0
2017-Oct-15 22:00N 55°58' E 012°01'0 0.0
2017-Oct-15 21:30N 55°58' E 012°01'0 0.0
2017-Oct-15 21:00N 55°58' E 012°01'0 0.0
2017-Oct-15 20:30N 55°58' E 012°01'0 0.0
2017-Oct-15 20:00N 55°58' E 012°01'0 0.0
2017-Oct-15 19:30N 55°58' E 012°01'0 0.0
2017-Oct-15 18:57N 55°58' E 012°01'0 0.0
2017-Oct-15 18:27N 55°58' E 012°01'0 0.0
2017-Oct-15 18:00N 55°58' E 012°01'0 0.0
2017-Oct-15 17:30N 55°58' E 012°01'0 0.0
2017-Oct-15 17:00N 55°58' E 012°01'0 0.0
2017-Oct-15 16:27N 55°58' E 012°01'0 0.0
2017-Oct-15 15:57N 55°58' E 012°01'0 0.0
2017-Oct-15 15:30N 55°58' E 012°01'0 0.0
2017-Oct-15 15:00N 55°58' E 012°01'0 0.0
2017-Oct-15 13:54N 55°58' E 012°01'0 0.0
2017-Oct-15 13:24N 55°58' E 012°01'0 0.0
2017-Oct-15 12:54N 55°58' E 012°01'0 0.0
2017-Oct-15 12:30N 55°58' E 012°01'0 0.0
2017-Oct-15 12:00N 55°58' E 012°01'0 0.0
2017-Oct-15 11:27N 55°58' E 012°01'0 0.0
2017-Oct-15 10:57N 55°58' E 012°01'0 0.0
2017-Oct-15 10:27N 55°58' E 012°01'0 0.0
2017-Oct-15 10:00N 55°58' E 012°01'0 0.0
2017-Oct-15 09:21N 55°58' E 012°01'0 0.0
2017-Oct-15 09:00N 55°58' E 012°01'0 0.0
2017-Oct-15 08:27N 55°58' E 012°01'0 0.0
2017-Oct-15 07:57N 55°58' E 012°01'0 0.0
2017-Oct-15 07:30N 55°58' E 012°01'0 0.0
2017-Oct-15 07:00N 55°58' E 012°01'0 0.0
2017-Oct-15 06:27N 55°58' E 012°01'0 0.0
2017-Oct-15 05:54N 55°58' E 012°01'0 0.0
2017-Oct-15 05:30N 55°58' E 012°01'0 0.0
2017-Oct-15 05:00N 55°58' E 012°01'0 0.0
2017-Oct-15 04:30N 55°58' E 012°01'0 0.0
2017-Oct-15 04:00N 55°58' E 012°01'0 0.0
2017-Oct-15 03:30N 55°58' E 012°01'0 0.0
2017-Oct-15 03:00N 55°58' E 012°01'0 0.0
2017-Oct-15 02:30N 55°58' E 012°01'0 0.0
2017-Oct-15 02:00N 55°58' E 012°01'0 0.0
2017-Oct-15 01:30N 55°58' E 012°01'0 0.0
2017-Oct-15 01:00N 55°58' E 012°01'0 0.0
2017-Oct-15 00:27N 55°58' E 012°01'0 0.0
2017-Oct-15 00:00N 55°58' E 012°01'0 0.0
2017-Oct-14 23:30N 55°58' E 012°01'0 0.0
2017-Oct-14 22:57N 55°58' E 012°01'0 0.0
2017-Oct-14 22:30N 55°58' E 012°01'0 0.0
2017-Oct-14 22:00N 55°58' E 012°01'0 0.0
2017-Oct-14 21:27N 55°58' E 012°01'0 0.0
2017-Oct-14 20:57N 55°58' E 012°01'0 0.0
2017-Oct-14 20:21N 55°58' E 012°01'0 0.0
2017-Oct-14 19:57N 55°58' E 012°01'0 0.0
2017-Oct-14 19:30N 55°58' E 012°01'0 0.0
2017-Oct-14 18:57N 55°58' E 012°01'0 0.0
2017-Oct-14 18:30N 55°58' E 012°01'0 0.0
2017-Oct-14 17:51N 55°58' E 012°01'0 0.1
2017-Oct-14 17:30N 55°58' E 012°01'0 0.0
2017-Oct-14 17:00N 55°58' E 012°01'0 0.0
2017-Oct-14 16:30N 55°58' E 012°01'0 0.0
2017-Oct-14 15:57N 55°58' E 012°01'0 0.0
2017-Oct-14 15:30N 55°58' E 012°01'0 0.0
2017-Oct-14 14:57N 55°58' E 012°01'0 0.0
2017-Oct-14 14:30N 55°58' E 012°01'0 0.0
2017-Oct-14 14:00N 55°58' E 012°01'0 0.0
2017-Oct-14 13:27N 55°58' E 012°01'0 0.0
2017-Oct-14 13:00N 55°58' E 012°01'0 0.0
2017-Oct-14 12:30N 55°58' E 012°01'0 0.0
2017-Oct-14 11:57N 55°58' E 012°01'0 0.0
2017-Oct-14 11:30N 55°58' E 012°01'0 0.0
2017-Oct-14 11:00N 55°58' E 012°01'0 0.0
2017-Oct-14 10:30N 55°58' E 012°01'0 0.0
2017-Oct-14 10:00N 55°58' E 012°01'0 0.0
2017-Oct-14 09:24N 55°58' E 012°01'0 0.0
2017-Oct-14 08:00N 55°58' E 012°01'0 0.0
2017-Oct-14 07:24N 55°58' E 012°01'0 0.0
2017-Oct-14 06:51N 55°58' E 012°01'0 0.0
2017-Oct-14 06:24N 55°58' E 012°01'0 0.0
2017-Oct-14 06:00N 55°58' E 012°01'0 0.0
2017-Oct-14 05:27N 55°58' E 012°01'0 0.0
2017-Oct-14 04:57N 55°58' E 012°01'0 0.0
2017-Oct-14 04:30N 55°58' E 012°01'0 0.0
2017-Oct-14 04:00N 55°58' E 012°01'0 0.0
2017-Oct-14 03:30N 55°58' E 012°01'0 0.0
2017-Oct-14 02:51N 55°58' E 012°01'0 0.0
2017-Oct-14 02:30N 55°58' E 012°01'0 0.0
2017-Oct-14 01:54N 55°58' E 012°01'0 0.0
2017-Oct-14 01:27N 55°58' E 012°01'0 0.0
2017-Oct-14 00:57N 55°58' E 012°01'0 0.0
2017-Oct-14 00:30N 55°58' E 012°01'0 0.0
2017-Oct-14 00:00N 55°58' E 012°01'0 0.0
2017-Oct-13 23:24N 55°58' E 012°01'0 0.0
2017-Oct-13 22:57N 55°58' E 012°01'0 0.0
2017-Oct-13 22:30N 55°58' E 012°01'0 0.0
2017-Oct-13 21:57N 55°58' E 012°01'0 0.0
2017-Oct-13 21:30N 55°58' E 012°01'0 0.0
2017-Oct-13 21:00N 55°58' E 012°01'0 0.0
2017-Oct-13 20:24N 55°58' E 012°01'0 0.0
2017-Oct-13 20:00N 55°58' E 012°01'0 0.0
2017-Oct-13 19:24N 55°58' E 012°01'0 0.0
2017-Oct-13 18:54N 55°58' E 012°01'0 0.0
2017-Oct-13 18:03N 55°58' E 012°01'0 0.1
2017-Oct-13 17:54N 55°58' E 012°01'0 0.0
2017-Oct-13 17:24N 55°58' E 012°01'0 0.0
2017-Oct-13 16:57N 55°58' E 012°01'0 0.0
2017-Oct-13 16:30N 55°58' E 012°01'0 0.0
2017-Oct-13 16:00N 55°58' E 012°01'0 0.0
2017-Oct-13 15:15N 55°58' E 012°01'0 0.0
2017-Oct-13 14:54N 55°58' E 012°01'0 0.0
2017-Oct-13 14:30N 55°58' E 012°01'0 0.0
2017-Oct-13 14:00N 55°58' E 012°01'0 0.0
2017-Oct-13 13:30N 55°58' E 012°01'0 0.0
2017-Oct-13 12:57N 55°58' E 012°01'0 0.0
2017-Oct-13 12:27N 55°58' E 012°01'0 0.0
2017-Oct-13 11:54N 55°58' E 012°01'0 0.0
2017-Oct-13 11:15N 55°58' E 012°01'0 0.0
2017-Oct-13 10:57N 55°58' E 012°01'0 0.0
2017-Oct-13 10:30N 55°58' E 012°01'0 0.0
2017-Oct-13 09:45N 55°58' E 012°01'0 0.1
2017-Oct-13 09:29N 55°58' E 012°01'2 3.8
2017-Oct-13 09:00N 55°57' E 011°58'5 9.3
2017-Oct-13 08:30N 55°55' E 011°50'2111.1
2017-Oct-13 06:39N 56°11' E 012°14'413.0
2017-Oct-13 06:23N 56°10' E 012°20'410.9
2017-Oct-13 06:01N 56°08' E 012°27'4 7.5
2017-Oct-13 05:30N 56°10' E 012°21'64 6.8
2017-Oct-12 20:07N 57°09' E 011°37'1 7.8
2017-Oct-12 19:59N 57°10' E 011°36'4 7.7
2017-Oct-12 19:29N 57°14' E 011°34'4 7.9
2017-Oct-12 19:00N 57°17' E 011°32'4 8.3
2017-Oct-12 18:31N 57°21' E 011°30'5 9.0
2017-Oct-12 18:00N 57°25' E 011°26'612.4
2017-Oct-12 17:30N 57°30' E 011°19'815.1
2017-Oct-12 17:00N 57°35' E 011°09'815.8
2017-Oct-12 16:29N 57°41' E 010°57'816.4
2017-Oct-12 16:00N 57°46' E 010°46'917.5
2017-Oct-12 15:30N 57°46' E 010°30'6015.3
2017-Oct-12 11:35N 57°26' E 008°45'215.0
2017-Oct-12 11:29N 57°26' E 008°42'715.1
2017-Oct-12 11:00N 57°22' E 008°30'815.1
2017-Oct-12 10:30N 57°19' E 008°18'814.9
2017-Oct-12 10:00N 57°14' E 008°07'38411.3
2017-Oct-10 23:55N 51°15' E 004°14'0 0.0
2017-Oct-10 23:25N 51°15' E 004°14'0 0.0
2017-Oct-10 22:55N 51°15' E 004°14'0 0.0
2017-Oct-10 22:28N 51°15' E 004°14'0 0.0
2017-Oct-10 21:55N 51°15' E 004°14'0 0.0
2017-Oct-10 21:28N 51°15' E 004°14'0 0.0
2017-Oct-10 20:58N 51°15' E 004°14'0 0.0
2017-Oct-10 20:28N 51°15' E 004°14'0 0.0
2017-Oct-10 19:58N 51°15' E 004°14'0 0.0
2017-Oct-10 19:28N 51°15' E 004°14'0 0.0
2017-Oct-10 18:58N 51°15' E 004°14'0 0.0
2017-Oct-10 18:28N 51°15' E 004°14'0 0.0
2017-Oct-10 17:58N 51°15' E 004°14'0 0.0
2017-Oct-10 17:28N 51°15' E 004°14'0 0.0
2017-Oct-10 16:58N 51°15' E 004°14'0 0.0
2017-Oct-10 16:28N 51°15' E 004°14'0 0.0
2017-Oct-10 15:58N 51°15' E 004°14'0 0.0
2017-Oct-10 15:28N 51°15' E 004°14'0 0.0
2017-Oct-10 14:55N 51°15' E 004°14'0 0.0
2017-Oct-10 13:58N 51°15' E 004°14'0 0.0
2017-Oct-10 13:25N 51°15' E 004°14'0 0.0
2017-Oct-10 12:58N 51°15' E 004°14'0 0.0
2017-Oct-10 12:28N 51°15' E 004°14'0 0.0
2017-Oct-10 11:58N 51°15' E 004°14'0 0.0
2017-Oct-10 11:28N 51°15' E 004°14'0 0.0
2017-Oct-10 10:58N 51°15' E 004°14'0 0.0
2017-Oct-10 10:28N 51°15' E 004°14'0 0.0
2017-Oct-10 09:58N 51°15' E 004°14'0 0.0
2017-Oct-10 09:28N 51°15' E 004°14'0 0.0
2017-Oct-10 08:58N 51°15' E 004°14'0 0.0
2017-Oct-10 08:28N 51°15' E 004°14'0 0.0
2017-Oct-10 07:44N 51°15' E 004°14'0 0.0
2017-Oct-10 07:30N 51°15' E 004°14'0 0.0
2017-Oct-10 07:00N 51°15' E 004°14'0 0.0
2017-Oct-10 06:30N 51°15' E 004°14'0 0.0
2017-Oct-10 06:00N 51°15' E 004°14'0 0.0
2017-Oct-10 05:30N 51°15' E 004°14'0 0.0
2017-Oct-10 04:57N 51°15' E 004°14'0 0.0
2017-Oct-10 04:30N 51°15' E 004°14'0 0.0
2017-Oct-10 03:57N 51°15' E 004°14'0 0.0
2017-Oct-10 03:30N 51°15' E 004°14'0 0.0
2017-Oct-10 03:00N 51°15' E 004°14'0 0.0
2017-Oct-10 02:27N 51°15' E 004°14'0 0.0
2017-Oct-10 02:00N 51°15' E 004°14'0 0.0
2017-Oct-10 01:30N 51°15' E 004°14'0 0.0
2017-Oct-10 01:00N 51°15' E 004°14'0 0.0
2017-Oct-10 00:30N 51°15' E 004°14'0 0.0
2017-Oct-10 00:00N 51°15' E 004°14'0 0.0
2017-Oct-09 23:30N 51°15' E 004°14'1 2.6
2017-Oct-09 23:00N 51°17' E 004°15'0 0.6
2017-Oct-09 22:30N 51°17' E 004°15'0 0.8
2017-Oct-09 22:01N 51°17' E 004°15'3 5.8
2017-Oct-09 21:30N 51°20' E 004°16'510.1
2017-Oct-09 21:00N 51°24' E 004°11'5 9.8
2017-Oct-09 20:30N 51°22' E 004°04'5 9.5
2017-Oct-09 20:00N 51°26' E 003°59'  
Track history (hours):
 
Tides and Currents Weather Stations Pressure Air Temp Water Temp Dewpoint Dewpoint Depression Visibility Wind Speed Wind Dir Waves Ship Positions

Fagelgracht

Last reported at 2017-Oct-19 19:58 UTC. Time now 2017-Oct-19 20:13 UTC.
Position N 53°32' E 009°59'.

Length 136 m; draft 5.9 m.

Type: Ship (hazmat cat A). MMSI: 246591000.

Date/timePositionNaut miles runAvg speedWind from/ knotsBaromVisibWave heightAir tempDewpointWater temp
2017-Oct-19 19:58N 53°32' E 009°59'0 0.0
2017-Oct-19 19:28N 53°32' E 009°59'0 0.0
2017-Oct-19 18:58N 53°32' E 009°59'0 0.0
2017-Oct-19 18:28N 53°32' E 009°59'0 0.0
2017-Oct-19 17:58N 53°32' E 009°59'0 0.0
2017-Oct-19 17:28N 53°32' E 009°59'0 0.0
2017-Oct-19 16:58N 53°32' E 009°59'0 0.0
2017-Oct-19 16:28N 53°32' E 009°59'0 0.0
2017-Oct-19 15:58N 53°32' E 009°59'0 0.0
2017-Oct-19 15:28N 53°32' E 009°59'0 0.0
2017-Oct-19 14:58N 53°32' E 009°59'0 0.0
2017-Oct-19 14:28N 53°32' E 009°59'0 0.0
2017-Oct-19 13:58N 53°32' E 009°59'0 0.0
2017-Oct-19 13:28N 53°32' E 009°59'0 0.0
2017-Oct-19 12:58N 53°32' E 009°59'0 0.0
2017-Oct-19 12:28N 53°32' E 009°59'0 0.0
2017-Oct-19 11:58N 53°32' E 009°59'0 0.0
2017-Oct-19 11:28N 53°32' E 009°59'0 0.0
2017-Oct-19 10:58N 53°32' E 009°59'0 0.0
2017-Oct-19 10:28N 53°32' E 009°59'0 0.0
2017-Oct-19 09:58N 53°32' E 009°59'0 0.0
2017-Oct-19 09:28N 53°32' E 009°59'0 0.0
2017-Oct-19 08:58N 53°32' E 009°59'0 0.0
2017-Oct-19 08:28N 53°32' E 009°59'0 0.0
2017-Oct-19 07:58N 53°32' E 009°59'0 0.0
2017-Oct-19 07:28N 53°32' E 009°59'0 0.0
2017-Oct-19 06:58N 53°32' E 009°59'0 0.0
2017-Oct-19 06:28N 53°32' E 009°59'0 0.0
2017-Oct-19 05:58N 53°32' E 009°59'0 0.0
2017-Oct-19 05:28N 53°32' E 009°59'0 0.0
2017-Oct-19 04:58N 53°32' E 009°59'0 0.0
2017-Oct-19 04:28N 53°32' E 009°59'0 0.0
2017-Oct-19 03:58N 53°32' E 009°59'0 0.0
2017-Oct-19 03:28N 53°32' E 009°59'0 0.0
2017-Oct-19 02:58N 53°32' E 009°59'0 0.0
2017-Oct-19 02:28N 53°32' E 009°59'0 0.0
2017-Oct-19 01:58N 53°32' E 009°59'0 0.0
2017-Oct-19 01:28N 53°32' E 009°59'0 0.0
2017-Oct-19 00:58N 53°32' E 009°59'0 0.0
2017-Oct-19 00:28N 53°32' E 009°59'0 0.0
2017-Oct-18 23:58N 53°32' E 009°59'0 0.0
2017-Oct-18 23:28N 53°32' E 009°59'0 0.0
2017-Oct-18 22:58N 53°32' E 009°59'0 0.0
2017-Oct-18 22:28N 53°32' E 009°59'0 0.0
2017-Oct-18 21:58N 53°32' E 009°59'0 0.0
2017-Oct-18 21:28N 53°32' E 009°59'0 0.0
2017-Oct-18 20:58N 53°32' E 009°59'0 0.0
2017-Oct-18 20:28N 53°32' E 009°59'0 0.3
2017-Oct-18 20:01N 53°32' E 009°59'3 6.4
2017-Oct-18 19:30N 53°32' E 009°54'4 8.5
2017-Oct-18 19:00N 53°33' E 009°47'5 9.9
2017-Oct-18 18:30N 53°34' E 009°39'611.9
2017-Oct-18 18:00N 53°38' E 009°31'611.1
2017-Oct-18 17:31N 53°43' E 009°28'510.8
2017-Oct-18 17:00N 53°48' E 009°23'510.7
2017-Oct-18 16:30N 53°52' E 009°17'510.4
2017-Oct-18 16:01N 53°53' E 009°08'1 1.6
2017-Oct-18 15:31N 53°54' E 009°09'1 1.2
2017-Oct-18 15:01N 53°54' E 009°09'1 0.9
2017-Oct-18 14:00N 53°55' E 009°11'4 7.2
2017-Oct-18 13:30N 53°57' E 009°14'4 8.3
2017-Oct-18 13:00N 54°01' E 009°18'4 8.6
2017-Oct-18 12:30N 54°05' E 009°19'4 8.1
2017-Oct-18 12:00N 54°09' E 009°22'4 8.6
2017-Oct-18 11:31N 54°11' E 009°28'4 8.5
2017-Oct-18 11:01N 54°13' E 009°35'4 7.7
2017-Oct-18 10:30N 54°16' E 009°38'4 7.6
2017-Oct-18 10:00N 54°19' E 009°43'4 7.9
2017-Oct-18 09:30N 54°22' E 009°47'25 4.9
2017-Oct-18 04:26N 54°32' E 010°26'101 9.2
2017-Oct-17 17:22N 56°01' E 011°50'3 8.8
2017-Oct-17 16:59N 55°58' E 011°50'1 1.2
2017-Oct-17 16:25N 55°58' E 011°51'0 0.1
2017-Oct-17 15:58N 55°58' E 011°51'0 0.0
2017-Oct-17 15:19N 55°58' E 011°51'0 0.0
2017-Oct-17 14:52N 55°58' E 011°51'0 0.0
2017-Oct-17 14:25N 55°58' E 011°51'0 0.0
2017-Oct-17 13:58N 55°58' E 011°51'0 0.0
2017-Oct-17 13:22N 55°58' E 011°51'0 0.0
2017-Oct-17 12:58N 55°58' E 011°51'0 0.0
2017-Oct-17 12:25N 55°58' E 011°51'0 0.0
2017-Oct-17 11:58N 55°58' E 011°51'0 0.0
2017-Oct-17 11:25N 55°58' E 011°51'0 0.0
2017-Oct-17 10:58N 55°58' E 011°51'0 0.0
2017-Oct-17 10:28N 55°58' E 011°51'0 0.0
2017-Oct-17 09:58N 55°58' E 011°51'0 0.0
2017-Oct-17 09:28N 55°58' E 011°51'0 0.0
2017-Oct-17 08:55N 55°58' E 011°51'0 0.0
2017-Oct-17 08:28N 55°58' E 011°51'0 0.0
2017-Oct-17 07:55N 55°58' E 011°51'0 0.0
2017-Oct-17 07:29N 55°58' E 011°51'0 0.7
2017-Oct-17 07:00N 55°57' E 011°50'3 5.4
2017-Oct-17 06:31N 55°55' E 011°50'511.0
2017-Oct-17 06:01N 55°57' E 011°59'1 2.8
2017-Oct-17 05:30N 55°58' E 012°01'0 0.0
2017-Oct-17 04:57N 55°58' E 012°01'0 0.0
2017-Oct-17 04:28N 55°58' E 012°01'0 0.0
2017-Oct-17 03:58N 55°58' E 012°01'0 0.0
2017-Oct-17 03:28N 55°58' E 012°01'0 0.0
2017-Oct-17 02:52N 55°58' E 012°01'0 0.0
2017-Oct-17 02:28N 55°58' E 012°01'0 0.0
2017-Oct-17 01:58N 55°58' E 012°01'0 0.0
2017-Oct-17 01:28N 55°58' E 012°01'0 0.0
2017-Oct-17 00:55N 55°58' E 012°01'0 0.0
2017-Oct-17 00:28N 55°58' E 012°01'0 0.0
2017-Oct-16 23:43N 55°58' E 012°01'0 0.0
2017-Oct-16 23:28N 55°58' E 012°01'0 0.0
2017-Oct-16 22:58N 55°58' E 012°01'0 0.0
2017-Oct-16 22:31N 55°58' E 012°01'0 0.0
2017-Oct-16 22:01N 55°58' E 012°01'0 0.0
2017-Oct-16 21:28N 55°58' E 012°01'0 0.0
2017-Oct-16 20:58N 55°58' E 012°01'0 0.0
2017-Oct-16 20:31N 55°58' E 012°01'0 0.0
2017-Oct-16 19:58N 55°58' E 012°01'0 0.0
2017-Oct-16 19:25N 55°58' E 012°01'0 0.0
2017-Oct-16 18:58N 55°58' E 012°01'0 0.0
2017-Oct-16 18:28N 55°58' E 012°01'0 0.0
2017-Oct-16 17:58N 55°58' E 012°01'0 0.0
2017-Oct-16 17:28N 55°58' E 012°01'0 0.0
2017-Oct-16 16:55N 55°58' E 012°01'0 0.0
2017-Oct-16 16:19N 55°58' E 012°01'0 0.0
2017-Oct-16 15:52N 55°58' E 012°01'0 0.0
2017-Oct-16 15:22N 55°58' E 012°01'0 0.0
2017-Oct-16 14:51N 55°58' E 012°01'0 0.0
2017-Oct-16 13:57N 55°58' E 012°01'0 0.0
2017-Oct-16 13:30N 55°58' E 012°01'0 0.0
2017-Oct-16 12:58N 55°58' E 012°01'0 0.0
2017-Oct-16 12:24N 55°58' E 012°01'0 0.0
2017-Oct-16 11:57N 55°58' E 012°01'0 0.0
2017-Oct-16 11:18N 55°58' E 012°01'0 0.0
2017-Oct-16 10:58N 55°58' E 012°01'0 0.0
2017-Oct-16 10:28N 55°58' E 012°01'0 0.0
2017-Oct-16 09:57N 55°58' E 012°01'0 0.0
2017-Oct-16 09:31N 55°58' E 012°01'0 0.0
2017-Oct-16 08:57N 55°58' E 012°01'0 0.0
2017-Oct-16 08:30N 55°58' E 012°01'0 0.0
2017-Oct-16 07:54N 55°58' E 012°01'0 0.0
2017-Oct-16 07:27N 55°58' E 012°01'0 0.0
2017-Oct-16 06:58N 55°58' E 012°01'0 0.0
2017-Oct-16 06:30N 55°58' E 012°01'0 0.0
2017-Oct-16 06:01N 55°58' E 012°01'0 0.0
2017-Oct-16 05:30N 55°58' E 012°01'0 0.0
2017-Oct-16 05:00N 55°58' E 012°01'0 0.0
2017-Oct-16 04:30N 55°58' E 012°01'0 0.0
2017-Oct-16 03:57N 55°58' E 012°01'0 0.0
2017-Oct-16 03:31N 55°58' E 012°01'0 0.0
2017-Oct-16 03:00N 55°58' E 012°01'0 0.0
2017-Oct-16 02:27N 55°58' E 012°01'0 0.0
2017-Oct-16 02:00N 55°58' E 012°01'0 0.0
2017-Oct-16 01:30N 55°58' E 012°01'0 0.0
2017-Oct-16 00:54N 55°58' E 012°01'0 0.0
2017-Oct-16 00:27N 55°58' E 012°01'0 0.0
2017-Oct-16 00:01N 55°58' E 012°01'0 0.0
2017-Oct-15 23:30N 55°58' E 012°01'0 0.0
2017-Oct-15 23:00N 55°58' E 012°01'0 0.0
2017-Oct-15 22:30N 55°58' E 012°01'0 0.0
2017-Oct-15 22:00N 55°58' E 012°01'0 0.0
2017-Oct-15 21:30N 55°58' E 012°01'0 0.0
2017-Oct-15 21:00N 55°58' E 012°01'0 0.0
2017-Oct-15 20:30N 55°58' E 012°01'0 0.0
2017-Oct-15 20:00N 55°58' E 012°01'0 0.0
2017-Oct-15 19:30N 55°58' E 012°01'0 0.0
2017-Oct-15 18:57N 55°58' E 012°01'0 0.0
2017-Oct-15 18:27N 55°58' E 012°01'0 0.0
2017-Oct-15 18:00N 55°58' E 012°01'0 0.0
2017-Oct-15 17:30N 55°58' E 012°01'0 0.0
2017-Oct-15 17:00N 55°58' E 012°01'0 0.0
2017-Oct-15 16:27N 55°58' E 012°01'0 0.0
2017-Oct-15 15:57N 55°58' E 012°01'0 0.0
2017-Oct-15 15:30N 55°58' E 012°01'0 0.0
2017-Oct-15 15:00N 55°58' E 012°01'0 0.0
2017-Oct-15 13:54N 55°58' E 012°01'0 0.0
2017-Oct-15 13:24N 55°58' E 012°01'0 0.0
2017-Oct-15 12:54N 55°58' E 012°01'0 0.0
2017-Oct-15 12:30N 55°58' E 012°01'0 0.0
2017-Oct-15 12:00N 55°58' E 012°01'0 0.0
2017-Oct-15 11:27N 55°58' E 012°01'0 0.0
2017-Oct-15 10:57N 55°58' E 012°01'0 0.0
2017-Oct-15 10:27N 55°58' E 012°01'0 0.0
2017-Oct-15 10:00N 55°58' E 012°01'0 0.0
2017-Oct-15 09:21N 55°58' E 012°01'0 0.0
2017-Oct-15 09:00N 55°58' E 012°01'0 0.0
2017-Oct-15 08:27N 55°58' E 012°01'0 0.0
2017-Oct-15 07:57N 55°58' E 012°01'0 0.0
2017-Oct-15 07:30N 55°58' E 012°01'0 0.0
2017-Oct-15 07:00N 55°58' E 012°01'0 0.0
2017-Oct-15 06:27N 55°58' E 012°01'0 0.0
2017-Oct-15 05:54N 55°58' E 012°01'0 0.0
2017-Oct-15 05:30N 55°58' E 012°01'0 0.0
2017-Oct-15 05:00N 55°58' E 012°01'0 0.0
2017-Oct-15 04:30N 55°58' E 012°01'0 0.0
2017-Oct-15 04:00N 55°58' E 012°01'0 0.0
2017-Oct-15 03:30N 55°58' E 012°01'0 0.0
2017-Oct-15 03:00N 55°58' E 012°01'0 0.0
2017-Oct-15 02:30N 55°58' E 012°01'0 0.0
2017-Oct-15 02:00N 55°58' E 012°01'0 0.0
2017-Oct-15 01:30N 55°58' E 012°01'0 0.0
2017-Oct-15 01:00N 55°58' E 012°01'0 0.0
2017-Oct-15 00:27N 55°58' E 012°01'0 0.0
2017-Oct-15 00:00N 55°58' E 012°01'0 0.0
2017-Oct-14 23:30N 55°58' E 012°01'0 0.0
2017-Oct-14 22:57N 55°58' E 012°01'0 0.0
2017-Oct-14 22:30N 55°58' E 012°01'0 0.0
2017-Oct-14 22:00N 55°58' E 012°01'0 0.0
2017-Oct-14 21:27N 55°58' E 012°01'0 0.0
2017-Oct-14 20:57N 55°58' E 012°01'0 0.0
2017-Oct-14 20:21N 55°58' E 012°01'0 0.0
2017-Oct-14 19:57N 55°58' E 012°01'0 0.0
2017-Oct-14 19:30N 55°58' E 012°01'0 0.0
2017-Oct-14 18:57N 55°58' E 012°01'0 0.0
2017-Oct-14 18:30N 55°58' E 012°01'0 0.0
2017-Oct-14 17:51N 55°58' E 012°01'0 0.1
2017-Oct-14 17:30N 55°58' E 012°01'0 0.0
2017-Oct-14 17:00N 55°58' E 012°01'0 0.0
2017-Oct-14 16:30N 55°58' E 012°01'0 0.0
2017-Oct-14 15:57N 55°58' E 012°01'0 0.0
2017-Oct-14 15:30N 55°58' E 012°01'0 0.0
2017-Oct-14 14:57N 55°58' E 012°01'0 0.0
2017-Oct-14 14:30N 55°58' E 012°01'0 0.0
2017-Oct-14 14:00N 55°58' E 012°01'0 0.0
2017-Oct-14 13:27N 55°58' E 012°01'0 0.0
2017-Oct-14 13:00N 55°58' E 012°01'0 0.0
2017-Oct-14 12:30N 55°58' E 012°01'0 0.0
2017-Oct-14 11:57N 55°58' E 012°01'0 0.0
2017-Oct-14 11:30N 55°58' E 012°01'0 0.0
2017-Oct-14 11:00N 55°58' E 012°01'0 0.0
2017-Oct-14 10:30N 55°58' E 012°01'0 0.0
2017-Oct-14 10:00N 55°58' E 012°01'0 0.0
2017-Oct-14 09:24N 55°58' E 012°01'0 0.0
2017-Oct-14 08:00N 55°58' E 012°01'0 0.0
2017-Oct-14 07:24N 55°58' E 012°01'0 0.0
2017-Oct-14 06:51N 55°58' E 012°01'0 0.0
2017-Oct-14 06:24N 55°58' E 012°01'0 0.0
2017-Oct-14 06:00N 55°58' E 012°01'0 0.0
2017-Oct-14 05:27N 55°58' E 012°01'0 0.0
2017-Oct-14 04:57N 55°58' E 012°01'0 0.0
2017-Oct-14 04:30N 55°58' E 012°01'0 0.0
2017-Oct-14 04:00N 55°58' E 012°01'0 0.0
2017-Oct-14 03:30N 55°58' E 012°01'0 0.0
2017-Oct-14 02:51N 55°58' E 012°01'0 0.0
2017-Oct-14 02:30N 55°58' E 012°01'0 0.0
2017-Oct-14 01:54N 55°58' E 012°01'0 0.0
2017-Oct-14 01:27N 55°58' E 012°01'0 0.0
2017-Oct-14 00:57N 55°58' E 012°01'0 0.0
2017-Oct-14 00:30N 55°58' E 012°01'0 0.0
2017-Oct-14 00:00N 55°58' E 012°01'0 0.0
2017-Oct-13 23:24N 55°58' E 012°01'0 0.0
2017-Oct-13 22:57N 55°58' E 012°01'0 0.0
2017-Oct-13 22:30N 55°58' E 012°01'0 0.0
2017-Oct-13 21:57N 55°58' E 012°01'0 0.0
2017-Oct-13 21:30N 55°58' E 012°01'0 0.0
2017-Oct-13 21:00N 55°58' E 012°01'0 0.0
2017-Oct-13 20:24N 55°58' E 012°01'0 0.0
2017-Oct-13 20:00N 55°58' E 012°01'0 0.0
2017-Oct-13 19:24N 55°58' E 012°01'0 0.0
2017-Oct-13 18:54N 55°58' E 012°01'0 0.0
2017-Oct-13 18:03N 55°58' E 012°01'0 0.1
2017-Oct-13 17:54N 55°58' E 012°01'0 0.0
2017-Oct-13 17:24N 55°58' E 012°01'0 0.0
2017-Oct-13 16:57N 55°58' E 012°01'0 0.0
2017-Oct-13 16:30N 55°58' E 012°01'0 0.0
2017-Oct-13 16:00N 55°58' E 012°01'0 0.0
2017-Oct-13 15:15N 55°58' E 012°01'0 0.0
2017-Oct-13 14:54N 55°58' E 012°01'0 0.0
2017-Oct-13 14:30N 55°58' E 012°01'0 0.0
2017-Oct-13 14:00N 55°58' E 012°01'0 0.0
2017-Oct-13 13:30N 55°58' E 012°01'0 0.0
2017-Oct-13 12:57N 55°58' E 012°01'0 0.0
2017-Oct-13 12:27N 55°58' E 012°01'0 0.0
2017-Oct-13 11:54N 55°58' E 012°01'0 0.0
2017-Oct-13 11:15N 55°58' E 012°01'0 0.0
2017-Oct-13 10:57N 55°58' E 012°01'0 0.0
2017-Oct-13 10:30N 55°58' E 012°01'0 0.0
2017-Oct-13 09:45N 55°58' E 012°01'0 0.1
2017-Oct-13 09:29N 55°58' E 012°01'2 3.8
2017-Oct-13 09:00N 55°57' E 011°58'5 9.3
2017-Oct-13 08:30N 55°55' E 011°50'2111.1
2017-Oct-13 06:39N 56°11' E 012°14'413.0
2017-Oct-13 06:23N 56°10' E 012°20'410.9
2017-Oct-13 06:01N 56°08' E 012°27'4 7.5
2017-Oct-13 05:30N 56°10' E 012°21'64 6.8
2017-Oct-12 20:07N 57°09' E 011°37'1 7.8
2017-Oct-12 19:59N 57°10' E 011°36'4 7.7
2017-Oct-12 19:29N 57°14' E 011°34'4 7.9
2017-Oct-12 19:00N 57°17' E 011°32'4 8.3
2017-Oct-12 18:31N 57°21' E 011°30'5 9.0
2017-Oct-12 18:00N 57°25' E 011°26'612.4
2017-Oct-12 17:30N 57°30' E 011°19'815.1
2017-Oct-12 17:00N 57°35' E 011°09'815.8
2017-Oct-12 16:29N 57°41' E 010°57'816.4
2017-Oct-12 16:00N 57°46' E 010°46'917.5
2017-Oct-12 15:30N 57°46' E 010°30'6015.3
2017-Oct-12 11:35N 57°26' E 008°45'215.0
2017-Oct-12 11:29N 57°26' E 008°42'715.1
2017-Oct-12 11:00N 57°22' E 008°30'815.1
2017-Oct-12 10:30N 57°19' E 008°18'814.9
2017-Oct-12 10:00N 57°14' E 008°07'38411.3
2017-Oct-10 23:55N 51°15' E 004°14'0 0.0
2017-Oct-10 23:25N 51°15' E 004°14'0 0.0
2017-Oct-10 22:55N 51°15' E 004°14'0 0.0
2017-Oct-10 22:28N 51°15' E 004°14'0 0.0
2017-Oct-10 21:55N 51°15' E 004°14'0 0.0
2017-Oct-10 21:28N 51°15' E 004°14'0 0.0
2017-Oct-10 20:58N 51°15' E 004°14'0 0.0
2017-Oct-10 20:28N 51°15' E 004°14'0 0.0
2017-Oct-10 19:58N 51°15' E 004°14'0 0.0
2017-Oct-10 19:28N 51°15' E 004°14'0 0.0
2017-Oct-10 18:58N 51°15' E 004°14'0 0.0
2017-Oct-10 18:28N 51°15' E 004°14'0 0.0
2017-Oct-10 17:58N 51°15' E 004°14'0 0.0
2017-Oct-10 17:28N 51°15' E 004°14'0 0.0
2017-Oct-10 16:58N 51°15' E 004°14'0 0.0
2017-Oct-10 16:28N 51°15' E 004°14'0 0.0
2017-Oct-10 15:58N 51°15' E 004°14'0 0.0
2017-Oct-10 15:28N 51°15' E 004°14'0 0.0
2017-Oct-10 14:55N 51°15' E 004°14'0 0.0
2017-Oct-10 13:58N 51°15' E 004°14'0 0.0
2017-Oct-10 13:25N 51°15' E 004°14'0 0.0
2017-Oct-10 12:58N 51°15' E 004°14'0 0.0
2017-Oct-10 12:28N 51°15' E 004°14'0 0.0
2017-Oct-10 11:58N 51°15' E 004°14'0 0.0
2017-Oct-10 11:28N 51°15' E 004°14'0 0.0
2017-Oct-10 10:58N 51°15' E 004°14'0 0.0
2017-Oct-10 10:28N 51°15' E 004°14'0 0.0
2017-Oct-10 09:58N 51°15' E 004°14'0 0.0
2017-Oct-10 09:28N 51°15' E 004°14'0 0.0
2017-Oct-10 08:58N 51°15' E 004°14'0 0.0
2017-Oct-10 08:28N 51°15' E 004°14'0 0.0
2017-Oct-10 07:44N 51°15' E 004°14'0 0.0
2017-Oct-10 07:30N 51°15' E 004°14'0 0.0
2017-Oct-10 07:00N 51°15' E 004°14'0 0.0
2017-Oct-10 06:30N 51°15' E 004°14'0 0.0
2017-Oct-10 06:00N 51°15' E 004°14'0 0.0
2017-Oct-10 05:30N 51°15' E 004°14'0 0.0
2017-Oct-10 04:57N 51°15' E 004°14'0 0.0
2017-Oct-10 04:30N 51°15' E 004°14'0 0.0
2017-Oct-10 03:57N 51°15' E 004°14'0 0.0
2017-Oct-10 03:30N 51°15' E 004°14'0 0.0
2017-Oct-10 03:00N 51°15' E 004°14'0 0.0
2017-Oct-10 02:27N 51°15' E 004°14'0 0.0
2017-Oct-10 02:00N 51°15' E 004°14'0 0.0
2017-Oct-10 01:30N 51°15' E 004°14'0 0.0
2017-Oct-10 01:00N 51°15' E 004°14'0 0.0
2017-Oct-10 00:30N 51°15' E 004°14'0 0.0
2017-Oct-10 00:00N 51°15' E 004°14'0 0.0
2017-Oct-09 23:30N 51°15' E 004°14'1 2.6
2017-Oct-09 23:00N 51°17' E 004°15'0 0.6
2017-Oct-09 22:30N 51°17' E 004°15'0 0.8
2017-Oct-09 22:01N 51°17' E 004°15'3 5.8
2017-Oct-09 21:30N 51°20' E 004°16'510.1
2017-Oct-09 21:00N 51°24' E 004°11'5 9.8
2017-Oct-09 20:30N 51°22' E 004°04'5 9.5
2017-Oct-09 20:00N 51°26' E 003°59'  

Dump ship's entire track history